createdAt,value
2023-02-04T00:00:26.418Z,6.45
2023-02-04T00:02:29.228Z,5.28
2023-02-04T00:04:31.972Z,7.40
2023-02-04T00:06:34.670Z,5.38
2023-02-04T00:08:37.622Z,5.15
2023-02-04T00:10:40.230Z,5.35
2023-02-04T00:12:42.891Z,5.43
2023-02-04T00:14:45.784Z,5.05
2023-02-04T00:16:49.742Z,5.32
2023-02-04T00:18:52.467Z,6.68
2023-02-04T00:20:55.091Z,5.20
2023-02-04T00:22:58.086Z,4.78
2023-02-04T00:25:00.788Z,5.53
2023-02-04T00:27:03.855Z,5.22
2023-02-04T00:29:06.483Z,4.88
2023-02-04T00:31:09.207Z,5.97
2023-02-04T00:33:13.210Z,4.85
2023-02-04T00:35:15.827Z,4.72
2023-02-04T00:37:18.455Z,4.72
2023-02-04T00:39:21.085Z,4.93
2023-02-04T00:41:23.739Z,5.97
2023-02-04T00:43:26.446Z,4.53
2023-02-04T00:45:29.237Z,4.82
2023-02-04T00:47:31.913Z,3.63
2023-02-04T00:49:36.135Z,5.18
2023-02-04T00:51:40.102Z,4.43
2023-02-04T00:53:42.737Z,5.25
2023-02-04T00:55:46.410Z,3.88
2023-02-04T00:57:49.069Z,4.38
2023-02-04T00:59:51.668Z,5.57
2023-02-04T01:01:54.316Z,5.45
2023-02-04T01:03:56.995Z,5.55
2023-02-04T01:06:00.997Z,5.25
2023-02-04T01:08:03.615Z,6.05
2023-02-04T01:10:07.025Z,4.72
2023-02-04T01:12:09.706Z,5.45
2023-02-04T01:14:13.376Z,4.68
2023-02-04T01:16:16.174Z,6.10
2023-02-04T01:18:18.802Z,5.95
2023-02-04T01:20:21.677Z,5.80
2023-02-04T01:22:25.658Z,6.10
2023-02-04T01:24:28.367Z,6.90
2023-02-04T01:26:31.218Z,6.20
2023-02-04T01:28:33.916Z,6.45
2023-02-04T01:30:36.666Z,6.35
2023-02-04T01:32:39.384Z,8.90
2023-02-04T01:34:42.041Z,10.02
2023-02-04T01:36:44.681Z,8.55
2023-02-04T01:38:48.823Z,6.30
2023-02-04T01:40:51.461Z,7.18
2023-02-04T01:42:54.733Z,6.80
2023-02-04T01:44:57.455Z,7.85
2023-02-04T01:47:00.388Z,5.65
2023-02-04T01:49:03.068Z,6.45
2023-02-04T01:51:08.481Z,7.50
2023-02-04T01:53:11.200Z,5.28
2023-02-04T01:55:18.335Z,6.43
2023-02-04T01:57:21.203Z,5.93
2023-02-04T01:59:24.234Z,6.32
2023-02-04T02:01:41.732Z,5.90
2023-02-04T02:03:44.458Z,4.43
2023-02-04T02:05:49.785Z,4.88
2023-02-04T02:07:55.080Z,5.85
2023-02-04T02:09:57.767Z,4.35
2023-02-04T02:12:04.035Z,6.30
2023-02-04T02:14:06.864Z,5.47
2023-02-04T02:16:09.605Z,4.95
2023-02-04T02:18:13.083Z,7.25
2023-02-04T02:20:18.186Z,5.40
2023-02-04T02:22:26.907Z,8.55
2023-02-04T02:24:32.936Z,5.70
2023-02-04T02:26:35.647Z,5.30
2023-02-04T02:28:38.410Z,5.80
2023-02-04T02:30:41.953Z,5.28
2023-02-04T02:32:46.203Z,8.15
2023-02-04T02:34:48.893Z,4.80
2023-02-04T02:36:51.544Z,5.50
2023-02-04T02:38:55.450Z,5.22
2023-02-04T02:41:00.361Z,5.38
2023-02-04T02:43:03.120Z,8.07
2023-02-04T02:45:12.126Z,11.35
2023-02-04T02:47:16.721Z,7.53
2023-02-04T02:49:20.794Z,8.82
2023-02-04T02:51:23.501Z,6.15
2023-02-04T02:53:26.181Z,6.63
2023-02-04T02:55:29.646Z,9.90
2023-02-04T02:57:33.616Z,5.93
2023-02-04T02:59:36.253Z,4.90
2023-02-04T03:01:38.987Z,5.78
2023-02-04T03:03:45.462Z,6.68
2023-02-04T03:05:50.850Z,7.30
2023-02-04T03:07:53.699Z,8.82
2023-02-04T03:09:56.406Z,8.52
2023-02-04T03:11:59.074Z,8.40
2023-02-04T03:14:04.727Z,9.65
2023-02-04T03:16:09.044Z,8.30
2023-02-04T03:18:12.745Z,10.77
2023-02-04T03:20:16.444Z,10.48
2023-02-04T03:22:19.188Z,6.43
2023-02-04T03:24:21.947Z,6.38
2023-02-04T03:26:25.856Z,5.85
2023-02-04T03:28:28.619Z,7.25
2023-02-04T03:30:33.400Z,7.95
2023-02-04T03:32:36.352Z,7.00
2023-02-04T03:34:39.267Z,5.15
2023-02-04T03:36:42.038Z,9.13
2023-02-04T03:38:44.691Z,6.07
2023-02-04T03:40:47.437Z,6.63
2023-02-04T03:42:50.058Z,6.72
2023-02-04T03:44:52.738Z,7.43
2023-02-04T03:46:57.027Z,6.55
2023-02-04T03:48:59.708Z,6.30
2023-02-04T03:51:02.350Z,8.52
2023-02-04T03:53:05.057Z,8.07
2023-02-04T03:55:08.184Z,9.43
2023-02-04T03:57:11.028Z,10.30
2023-02-04T03:59:13.673Z,10.82
2023-02-04T04:01:16.395Z,5.28
2023-02-04T04:03:20.404Z,7.93
2023-02-04T04:05:23.016Z,7.60
2023-02-04T04:07:25.634Z,9.15
2023-02-04T04:09:28.241Z,8.57
2023-02-04T04:11:30.892Z,6.70
2023-02-04T04:13:33.505Z,7.53
2023-02-04T04:15:36.257Z,9.32
2023-02-04T04:17:38.904Z,8.38
2023-02-04T04:19:44.301Z,10.20
2023-02-04T04:21:46.881Z,8.32
2023-02-04T04:23:49.590Z,9.38
2023-02-04T04:25:52.312Z,10.52
2023-02-04T04:27:54.976Z,9.27
2023-02-04T04:29:57.671Z,10.98
2023-02-04T04:32:00.289Z,13.65
2023-02-04T04:34:03.035Z,11.77
2023-02-04T04:36:08.528Z,7.13
2023-02-04T04:38:11.251Z,7.32
2023-02-04T04:40:14.215Z,9.40
2023-02-04T04:42:16.852Z,9.40
2023-02-04T04:44:19.460Z,6.15
2023-02-04T04:46:22.159Z,9.13
2023-02-04T04:48:25.489Z,6.15
2023-02-04T04:50:28.223Z,8.63
2023-02-04T04:52:32.198Z,9.10
2023-02-04T04:54:34.811Z,7.15
2023-02-04T04:56:37.462Z,5.63
2023-02-04T04:58:40.089Z,7.40
2023-02-04T05:00:42.842Z,6.10
2023-02-04T05:02:45.640Z,8.73
2023-02-04T05:04:48.301Z,8.73
2023-02-04T05:06:50.992Z,7.13
2023-02-04T05:08:55.449Z,8.52
2023-02-04T05:10:58.146Z,10.75
2023-02-04T05:13:00.759Z,9.45
2023-02-04T05:15:03.489Z,8.07
2023-02-04T05:17:06.146Z,7.13
2023-02-04T05:19:08.733Z,7.55
2023-02-04T05:21:11.678Z,6.97
2023-02-04T05:23:14.371Z,9.32
2023-02-04T05:25:18.493Z,8.23
2023-02-04T05:27:21.222Z,8.65
2023-02-04T05:29:23.900Z,8.65
2023-02-04T05:31:26.576Z,10.65
2023-02-04T05:33:29.265Z,9.35
2023-02-04T05:35:32.017Z,11.48
2023-02-04T05:37:34.917Z,13.07
2023-02-04T05:39:37.580Z,10.48
2023-02-04T05:41:41.537Z,8.73
2023-02-04T05:43:44.142Z,10.32
2023-02-04T05:45:46.788Z,10.10
2023-02-04T05:47:49.442Z,9.93
2023-02-04T05:49:52.022Z,9.90
2023-02-04T05:51:54.712Z,13.75
2023-02-04T05:53:57.394Z,10.68
2023-02-04T05:56:00.013Z,12.35
2023-02-04T05:58:03.950Z,12.73
2023-02-04T06:00:07.886Z,11.95
2023-02-04T06:02:10.554Z,9.40
2023-02-04T06:04:15.369Z,10.60
2023-02-04T06:06:18.118Z,13.80
2023-02-04T06:08:20.792Z,10.52
2023-02-04T06:10:23.488Z,10.05
2023-02-04T06:12:26.063Z,14.10
2023-02-04T06:14:29.990Z,14.00
2023-02-04T06:16:32.574Z,13.80
2023-02-04T06:18:35.238Z,10.52
2023-02-04T06:20:37.976Z,12.70
2023-02-04T06:22:40.622Z,20.50
2023-02-04T06:24:43.286Z,21.40
2023-02-04T06:26:45.972Z,11.63
2023-02-04T06:28:48.590Z,8.52
2023-02-04T06:30:52.699Z,16.13
2023-02-04T06:32:55.419Z,12.70
2023-02-04T06:34:57.982Z,12.27
2023-02-04T06:37:00.572Z,13.80
2023-02-04T06:39:03.188Z,12.60
2023-02-04T06:41:06.306Z,11.70
2023-02-04T06:43:09.034Z,11.60
2023-02-04T06:45:11.698Z,11.95
2023-02-04T06:47:15.832Z,12.50
2023-02-04T06:49:18.509Z,12.88
2023-02-04T06:51:21.204Z,14.40
2023-02-04T06:53:23.943Z,14.45
2023-02-04T06:55:26.657Z,15.13
2023-02-04T06:57:29.226Z,12.98
2023-02-04T06:59:33.035Z,13.80
2023-02-04T07:01:35.709Z,13.10
2023-02-04T07:03:39.781Z,17.50
2023-02-04T07:05:42.439Z,13.85
2023-02-04T07:07:45.135Z,12.32
2023-02-04T07:09:47.732Z,13.85
2023-02-04T07:11:50.362Z,13.77
2023-02-04T07:13:53.006Z,13.85
2023-02-04T07:15:55.681Z,22.30
2023-02-04T07:17:58.388Z,14.18
2023-02-04T07:20:02.662Z,13.52
2023-02-04T07:22:05.715Z,12.82
2023-02-04T07:24:08.453Z,17.55
2023-02-04T07:26:11.075Z,18.58
2023-02-04T07:28:13.700Z,19.02
2023-02-04T07:30:16.329Z,14.40
2023-02-04T07:32:18.984Z,13.20
2023-02-04T07:34:21.738Z,13.65
2023-02-04T07:36:26.286Z,12.60
2023-02-04T07:38:29.008Z,13.45
2023-02-04T07:40:32.075Z,13.30
2023-02-04T07:42:34.937Z,11.63
2023-02-04T07:44:38.444Z,12.23
2023-02-04T07:46:41.218Z,14.98
2023-02-04T07:48:43.925Z,10.63
2023-02-04T07:50:46.627Z,14.60
2023-02-04T07:52:50.673Z,16.38
2023-02-04T07:54:53.464Z,12.80
2023-02-04T07:56:56.113Z,17.15
2023-02-04T07:58:58.795Z,16.92
2023-02-04T08:01:01.980Z,12.90
2023-02-04T08:03:05.166Z,14.70
2023-02-04T08:05:08.700Z,18.35
2023-02-04T08:07:11.274Z,11.18
2023-02-04T08:09:15.361Z,19.27
2023-02-04T08:11:18.023Z,12.68
2023-02-04T08:13:20.738Z,15.48
2023-02-04T08:15:23.352Z,15.65
2023-02-04T08:17:26.121Z,12.65
2023-02-04T08:19:28.784Z,9.38
2023-02-04T08:21:31.465Z,12.63
2023-02-04T08:23:34.207Z,14.73
2023-02-04T08:25:38.169Z,13.60
2023-02-04T08:27:41.281Z,13.27
2023-02-04T08:29:43.886Z,12.23
2023-02-04T08:31:47.666Z,13.40
2023-02-04T08:33:50.334Z,10.02
2023-02-04T08:35:52.960Z,9.85
2023-02-04T08:37:55.635Z,6.90
2023-02-04T08:39:58.498Z,12.00
2023-02-04T08:42:02.534Z,11.95
2023-02-04T08:44:05.372Z,13.93
2023-02-04T08:46:08.177Z,12.95
2023-02-04T08:48:10.831Z,13.80
2023-02-04T08:50:13.605Z,14.93
2023-02-04T08:52:16.288Z,12.60
2023-02-04T08:54:19.022Z,19.20
2023-02-04T08:56:21.666Z,14.27
2023-02-04T08:58:25.695Z,10.02
2023-02-04T09:00:28.605Z,9.35
2023-02-04T09:02:31.318Z,10.95
2023-02-04T09:04:34.546Z,12.40
2023-02-04T09:06:37.120Z,9.65
2023-02-04T09:08:39.782Z,9.23
2023-02-04T09:10:42.427Z,10.50
2023-02-04T09:12:45.092Z,12.45
2023-02-04T09:14:49.266Z,12.63
2023-02-04T09:16:51.909Z,7.97
2023-02-04T09:18:54.629Z,13.57
2023-02-04T09:20:57.244Z,13.07
2023-02-04T09:22:59.867Z,6.80
2023-02-04T09:25:02.531Z,8.98
2023-02-04T09:27:05.335Z,10.73
2023-02-04T09:29:07.940Z,11.70
2023-02-04T09:31:12.045Z,12.13
2023-02-04T09:33:16.536Z,10.02
2023-02-04T09:35:19.170Z,11.30
2023-02-04T09:37:21.800Z,10.80
2023-02-04T09:39:24.414Z,14.82
2023-02-04T09:41:27.183Z,9.65
2023-02-04T09:43:34.602Z,9.88
2023-02-04T09:45:37.798Z,7.75
2023-02-04T09:47:41.830Z,10.52
2023-02-04T09:49:46.819Z,9.77
2023-02-04T09:51:50.785Z,10.30
2023-02-04T09:53:55.852Z,10.38
2023-02-04T09:55:58.496Z,7.75
2023-02-04T09:58:01.490Z,11.50
2023-02-04T10:00:09.114Z,8.82
2023-02-04T10:02:23.989Z,10.50
2023-02-04T10:04:28.672Z,10.88
2023-02-04T10:06:31.766Z,8.60
2023-02-04T10:08:35.097Z,10.40
2023-02-04T10:10:37.680Z,12.52
2023-02-04T10:12:40.478Z,8.25
2023-02-04T10:14:43.656Z,7.38
2023-02-04T10:16:53.393Z,6.03
2023-02-04T10:18:56.444Z,10.88
2023-02-04T10:21:13.566Z,9.07
2023-02-04T10:23:16.237Z,10.80
2023-02-04T10:25:21.514Z,11.57
2023-02-04T10:27:24.438Z,11.32
2023-02-04T10:29:27.202Z,9.77
2023-02-04T10:31:37.570Z,8.70
2023-02-04T10:33:40.434Z,8.10
2023-02-04T10:35:47.845Z,10.93
2023-02-04T10:38:04.950Z,11.10
2023-02-04T10:40:27.993Z,11.88
2023-02-04T10:42:32.045Z,10.25
2023-02-04T10:44:36.595Z,12.50
2023-02-04T10:46:39.528Z,11.85
2023-02-04T10:48:43.100Z,12.85
2023-02-04T10:50:47.705Z,7.43
2023-02-04T10:52:55.353Z,10.57
2023-02-04T10:54:57.057Z,9.85
2023-02-04T10:57:01.667Z,13.25
2023-02-04T10:59:04.344Z,14.70
2023-02-04T11:01:10.719Z,11.02
2023-02-04T11:03:17.410Z,10.43
2023-02-04T11:05:22.506Z,7.82
2023-02-04T11:07:26.579Z,9.38
2023-02-04T11:09:30.703Z,9.40
2023-02-04T11:11:33.338Z,7.30
2023-02-04T11:13:43.943Z,13.43
2023-02-04T11:15:50.554Z,10.32
2023-02-04T11:18:03.825Z,10.02
2023-02-04T11:20:17.556Z,11.07
2023-02-04T11:22:23.848Z,10.63
2023-02-04T11:24:27.054Z,8.75
2023-02-04T11:26:36.292Z,11.73
2023-02-04T11:28:50.204Z,9.95
2023-02-04T11:31:00.874Z,9.32
2023-02-04T11:33:06.141Z,12.57
2023-02-04T11:35:27.494Z,9.50
2023-02-04T11:37:37.154Z,12.35
2023-02-04T11:39:42.359Z,9.57
2023-02-04T11:41:47.550Z,9.75
2023-02-04T11:43:51.844Z,12.90
2023-02-04T11:46:04.093Z,15.35
2023-02-04T11:48:14.776Z,11.40
2023-02-04T11:50:22.083Z,7.32
2023-02-04T11:52:24.655Z,9.82
2023-02-04T11:54:27.315Z,11.43
2023-02-04T11:56:30.969Z,12.82
2023-02-04T11:58:34.972Z,10.38
2023-02-04T12:00:38.646Z,12.85
2023-02-04T12:02:47.222Z,10.93
2023-02-04T12:04:58.451Z,10.30
2023-02-04T12:07:04.405Z,9.63
2023-02-04T12:09:08.946Z,8.68
2023-02-04T12:11:15.585Z,11.38
2023-02-04T12:13:23.401Z,13.15
2023-02-04T12:15:35.769Z,11.07
2023-02-04T12:17:38.857Z,10.35
2023-02-04T12:19:41.484Z,10.07
2023-02-04T12:21:44.325Z,11.65
2023-02-04T12:23:46.968Z,12.45
2023-02-04T12:25:50.120Z,13.15
2023-02-04T12:27:54.577Z,12.77
2023-02-04T12:29:57.242Z,8.90
2023-02-04T12:32:01.430Z,10.85
2023-02-04T12:34:04.111Z,14.20
2023-02-04T12:36:07.601Z,17.75
2023-02-04T12:38:10.514Z,11.35
2023-02-04T12:40:16.799Z,10.20
2023-02-04T12:42:19.408Z,11.20
2023-02-04T12:44:22.311Z,10.35
2023-02-04T12:46:25.053Z,8.13
2023-02-04T12:48:29.232Z,12.32
2023-02-04T12:50:31.917Z,7.40
2023-02-04T12:52:34.807Z,9.95
2023-02-04T12:54:37.508Z,7.95
2023-02-04T12:56:40.210Z,5.78
2023-02-04T12:58:42.869Z,11.30
2023-02-04T13:00:45.551Z,7.32
2023-02-04T13:02:48.362Z,12.50
2023-02-04T13:04:52.478Z,15.82
2023-02-04T13:06:55.255Z,9.63
2023-02-04T13:08:57.946Z,9.25
2023-02-04T13:11:00.597Z,6.50
2023-02-04T13:13:04.675Z,16.75
2023-02-04T13:15:08.506Z,9.63
2023-02-04T13:17:11.450Z,9.38
2023-02-04T13:19:14.079Z,9.02
2023-02-04T13:21:18.531Z,9.45
2023-02-04T13:23:21.165Z,9.93
2023-02-04T13:25:23.814Z,13.10
2023-02-04T13:27:27.660Z,10.90
2023-02-04T13:29:30.336Z,13.25
2023-02-04T13:31:33.148Z,11.43
2023-02-04T13:33:35.968Z,10.27
2023-02-04T13:35:38.634Z,10.40
2023-02-04T13:37:42.722Z,9.98
2023-02-04T13:39:45.355Z,12.00
2023-02-04T13:41:48.032Z,8.82
2023-02-04T13:43:50.948Z,7.32
2023-02-04T13:45:53.611Z,9.65
2023-02-04T13:47:56.291Z,8.40
2023-02-04T13:49:58.962Z,12.40
2023-02-04T13:52:01.643Z,9.38
2023-02-04T13:54:05.796Z,9.98
2023-02-04T13:56:08.796Z,8.63
2023-02-04T13:58:11.576Z,5.88
2023-02-04T14:00:15.557Z,19.70
2023-02-04T14:02:18.598Z,10.73
2023-02-04T14:04:21.300Z,10.65
2023-02-04T14:06:25.217Z,7.97
2023-02-04T14:08:28.364Z,7.47
2023-02-04T14:10:32.865Z,8.52
2023-02-04T14:12:35.790Z,10.80
2023-02-04T14:14:38.436Z,6.78
2023-02-04T14:16:41.214Z,5.88
2023-02-04T14:18:43.900Z,7.45
2023-02-04T14:20:46.608Z,14.18
2023-02-04T14:22:49.351Z,8.98
2023-02-04T14:24:51.973Z,10.13
2023-02-04T14:26:56.305Z,10.88
2023-02-04T14:28:58.987Z,11.18
2023-02-04T14:31:01.725Z,12.50
2023-02-04T14:33:04.811Z,5.57
2023-02-04T14:35:07.898Z,8.98
2023-02-04T14:37:10.576Z,9.13
2023-02-04T14:39:13.226Z,10.88
2023-02-04T14:41:19.936Z,9.25
2023-02-04T14:43:23.996Z,8.35
2023-02-04T14:45:26.656Z,7.65
2023-02-04T14:47:29.234Z,8.18
2023-02-04T14:49:33.024Z,10.15
2023-02-04T14:51:35.723Z,8.50
2023-02-04T14:53:39.202Z,9.25
2023-02-04T14:55:42.536Z,9.10
2023-02-04T14:57:45.152Z,11.20
2023-02-04T14:59:49.103Z,10.23
2023-02-04T15:01:52.301Z,8.77
2023-02-04T15:03:55.054Z,11.45
2023-02-04T15:05:57.723Z,10.18
2023-02-04T15:08:00.357Z,9.30
2023-02-04T15:10:03.149Z,8.48
2023-02-04T15:12:06.523Z,10.57
2023-02-04T15:14:09.150Z,10.02
2023-02-04T15:16:14.751Z,12.77
2023-02-04T15:18:17.838Z,10.68
2023-02-04T15:20:20.591Z,10.30
2023-02-04T15:22:23.398Z,10.45
2023-02-04T15:24:27.694Z,10.50
2023-02-04T15:26:30.277Z,10.60
2023-02-04T15:28:32.902Z,8.85
2023-02-04T15:30:36.154Z,9.70
2023-02-04T15:32:42.794Z,9.20
2023-02-04T15:34:45.493Z,8.80
2023-02-04T15:36:48.231Z,9.82
2023-02-04T15:38:50.832Z,11.52
2023-02-04T15:40:53.572Z,7.55
2023-02-04T15:42:56.263Z,8.93
2023-02-04T15:44:58.910Z,6.60
2023-02-04T15:47:01.590Z,13.82
2023-02-04T15:49:05.649Z,6.72
2023-02-04T15:51:08.274Z,6.32
2023-02-04T15:53:10.912Z,7.88
2023-02-04T15:55:13.604Z,8.73
2023-02-04T15:57:16.221Z,9.57
2023-02-04T15:59:18.859Z,8.90
2023-02-04T16:01:21.634Z,9.55
2023-02-04T16:03:24.415Z,9.27
2023-02-04T16:05:28.501Z,8.52
2023-02-04T16:07:31.150Z,6.72
2023-02-04T16:09:33.723Z,6.68
2023-02-04T16:11:38.431Z,11.43
2023-02-04T16:13:41.118Z,8.10
2023-02-04T16:15:43.796Z,10.13
2023-02-04T16:17:46.496Z,6.75
2023-02-04T16:19:49.220Z,7.00
2023-02-04T16:21:53.579Z,7.30
2023-02-04T16:23:56.185Z,9.48
2023-02-04T16:25:58.902Z,10.23
2023-02-04T16:28:01.541Z,7.70
2023-02-04T16:30:05.000Z,5.57
2023-02-04T16:32:07.688Z,10.07
2023-02-04T16:34:10.377Z,10.48
2023-02-04T16:36:13.723Z,6.78
2023-02-04T16:38:19.242Z,9.75
2023-02-04T16:40:22.076Z,9.05
2023-02-04T16:42:24.708Z,6.47
2023-02-04T16:44:27.315Z,8.75
2023-02-04T16:46:31.804Z,11.77
2023-02-04T16:48:36.106Z,8.80
2023-02-04T16:50:38.985Z,9.07
2023-02-04T16:52:41.674Z,11.77
2023-02-04T16:54:45.729Z,9.65
2023-02-04T16:56:48.453Z,9.80
2023-02-04T16:58:51.060Z,10.75
2023-02-04T17:00:54.153Z,10.02
2023-02-04T17:02:57.006Z,7.38
2023-02-04T17:04:59.728Z,13.20
2023-02-04T17:07:02.330Z,9.90
2023-02-04T17:09:05.145Z,7.78
2023-02-04T17:11:26.541Z,9.63
2023-02-04T17:13:29.492Z,6.20
2023-02-04T17:15:32.532Z,9.85
2023-02-04T17:17:35.333Z,7.22
2023-02-04T17:19:38.016Z,12.18
2023-02-04T17:21:40.977Z,8.90
2023-02-04T17:23:44.653Z,7.80
2023-02-04T17:25:47.313Z,11.27
2023-02-04T17:27:51.895Z,9.63
2023-02-04T17:29:54.503Z,5.72
2023-02-04T17:31:57.263Z,12.65
2023-02-04T17:33:59.930Z,9.70
2023-02-04T17:36:03.421Z,12.73
2023-02-04T17:38:06.094Z,9.23
2023-02-04T17:40:12.729Z,8.23
2023-02-04T17:42:15.456Z,12.80
2023-02-04T17:44:23.748Z,6.95
2023-02-04T17:46:27.574Z,6.95
2023-02-04T17:48:30.719Z,9.10
2023-02-04T17:52:44.062Z,11.93
2023-02-04T17:54:46.768Z,12.00
2023-02-04T17:56:49.466Z,10.23
2023-02-04T17:58:52.143Z,13.45
2023-02-04T18:00:57.691Z,12.10
2023-02-04T18:03:00.861Z,6.68
2023-02-04T18:05:13.392Z,15.88
2023-02-04T18:07:16.080Z,7.20
2023-02-04T18:09:19.426Z,9.60
2023-02-04T18:11:27.019Z,9.98
2023-02-04T18:13:32.902Z,11.23
2023-02-04T18:15:37.165Z,6.85
2023-02-04T18:17:41.384Z,11.57
2023-02-04T18:19:45.122Z,14.48
2023-02-04T18:21:48.314Z,11.25
2023-02-04T18:24:10.715Z,9.32
2023-02-04T18:26:17.986Z,10.48
2023-02-04T18:28:22.574Z,9.48
2023-02-04T18:30:27.781Z,9.18
2023-02-04T18:32:37.448Z,9.40
2023-02-04T18:34:44.648Z,9.90
2023-02-04T18:36:47.424Z,7.78
2023-02-04T18:38:50.662Z,10.93
2023-02-04T18:40:59.314Z,6.70
2023-02-04T18:43:14.182Z,10.65
2023-02-04T18:45:25.667Z,11.32
2023-02-04T18:47:32.403Z,7.60
2023-02-04T18:49:39.625Z,9.18
2023-02-04T18:51:45.987Z,10.38
2023-02-04T18:53:48.848Z,13.07
2023-02-04T18:55:53.362Z,12.65
2023-02-04T18:57:56.405Z,18.63
2023-02-04T19:00:32.193Z,11.02
2023-02-04T19:02:39.315Z,11.30
2023-02-04T19:06:48.346Z,10.73
2023-02-04T19:08:51.221Z,11.65
2023-02-04T19:10:55.736Z,9.38
2023-02-04T19:13:12.502Z,9.65
2023-02-04T19:15:35.129Z,13.48
2023-02-04T19:17:37.963Z,13.75
2023-02-04T19:19:44.076Z,10.75
2023-02-04T19:21:48.880Z,13.55
2023-02-04T19:23:55.651Z,11.18
2023-02-04T19:25:58.262Z,10.93
2023-02-04T19:28:02.438Z,11.32
2023-02-04T19:30:41.209Z,10.60
2023-02-04T19:32:46.328Z,21.15
2023-02-04T19:34:49.166Z,10.48
2023-02-04T19:36:54.766Z,15.70
2023-02-04T19:39:00.296Z,12.80
2023-02-04T19:41:03.014Z,10.70
2023-02-04T19:43:20.554Z,11.18
2023-02-04T19:45:25.260Z,14.00
2023-02-04T19:47:30.310Z,14.38
2023-02-04T19:49:37.846Z,12.82
2023-02-04T19:51:40.674Z,16.15
2023-02-04T19:53:46.991Z,19.05
2023-02-04T19:55:52.636Z,15.93
2023-02-04T19:57:58.374Z,13.60
2023-02-04T20:00:01.240Z,13.77
2023-02-04T20:02:21.839Z,15.43
2023-02-04T20:04:24.509Z,18.48
2023-02-04T20:06:33.878Z,12.90
2023-02-04T20:08:46.788Z,16.73
2023-02-04T20:12:53.098Z,14.48
2023-02-04T20:14:57.683Z,15.90
2023-02-04T20:17:03.449Z,15.63
2023-02-04T20:19:15.874Z,16.45
2023-02-04T20:21:18.508Z,15.38
2023-02-04T20:23:29.408Z,15.80
2023-02-04T20:25:39.755Z,14.95
2023-02-04T20:27:42.812Z,15.82
2023-02-04T20:29:45.846Z,13.52
2023-02-04T20:31:48.679Z,16.50
2023-02-04T20:33:53.413Z,19.08
2023-02-04T20:36:25.836Z,18.20
2023-02-04T20:38:28.552Z,16.27
2023-02-04T20:40:35.953Z,15.55
2023-02-04T20:42:46.122Z,15.18
2023-02-04T20:44:48.884Z,15.63
2023-02-04T20:46:51.475Z,16.70
2023-02-04T20:48:54.040Z,16.02
2023-02-04T20:51:01.392Z,20.50
2023-02-04T20:53:08.664Z,21.48
2023-02-04T20:55:24.524Z,19.75
2023-02-04T20:57:27.277Z,17.40
2023-02-04T20:59:34.610Z,14.30
2023-02-04T21:01:39.093Z,18.52
2023-02-04T21:03:41.704Z,15.75
2023-02-04T21:05:44.436Z,15.55
2023-02-04T21:07:47.058Z,16.70
2023-02-04T21:09:51.541Z,17.55
2023-02-04T21:11:55.305Z,14.45
2023-02-04T21:13:57.953Z,14.57
2023-02-04T21:16:02.320Z,16.10
2023-02-04T21:18:05.463Z,18.25
2023-02-04T21:20:08.962Z,13.23
2023-02-04T21:22:11.626Z,19.85
2023-02-04T21:24:14.833Z,16.15
2023-02-04T21:26:17.545Z,15.48
2023-02-04T21:28:20.294Z,17.73
2023-02-04T21:30:24.217Z,14.05
2023-02-04T21:32:28.266Z,12.50
2023-02-04T21:34:30.974Z,14.43
2023-02-04T21:36:33.754Z,13.63
2023-02-04T21:38:36.418Z,14.02
2023-02-04T21:40:40.137Z,12.48
2023-02-04T21:42:42.809Z,14.20
2023-02-04T21:44:45.475Z,16.30
2023-02-04T21:46:48.213Z,13.88
2023-02-04T21:48:52.239Z,15.00
2023-02-04T21:50:54.905Z,17.83
2023-02-04T21:52:57.593Z,19.02
2023-02-04T21:55:00.274Z,17.55
2023-02-04T21:57:04.328Z,19.17
2023-02-04T21:59:06.931Z,17.17
2023-02-04T22:01:10.434Z,14.88
2023-02-04T22:03:17.123Z,18.17
2023-02-04T22:05:21.648Z,16.63
2023-02-04T22:07:24.426Z,15.05
2023-02-04T22:09:27.099Z,12.57
2023-02-04T22:11:29.795Z,16.48
2023-02-04T22:13:32.503Z,15.60
2023-02-04T22:15:35.460Z,10.60
2023-02-04T22:17:38.450Z,12.60
2023-02-04T22:19:41.069Z,9.80
2023-02-04T22:21:45.122Z,12.05
2023-02-04T22:23:47.748Z,13.90
2023-02-04T22:25:50.403Z,8.98
2023-02-04T22:27:53.028Z,14.70
2023-02-04T22:29:56.960Z,10.90
2023-02-04T22:31:59.816Z,13.68
2023-02-04T22:34:03.339Z,11.77
2023-02-04T22:36:06.566Z,9.68
2023-02-04T22:38:10.510Z,10.30
2023-02-04T22:40:13.732Z,10.32
2023-02-04T22:42:16.487Z,10.68
2023-02-04T22:44:19.269Z,14.10
2023-02-04T22:46:22.318Z,10.75
2023-02-04T22:48:24.977Z,11.02
2023-02-04T22:50:27.671Z,12.93
2023-02-04T22:52:30.268Z,16.55
2023-02-04T22:54:34.466Z,28.80
2023-02-04T22:56:37.215Z,15.57
2023-02-04T22:58:39.804Z,10.85
2023-02-04T23:00:43.130Z,10.43
2023-02-04T23:02:45.862Z,12.95
2023-02-04T23:04:48.535Z,11.07
2023-02-04T23:06:51.998Z,12.90
2023-02-04T23:08:54.852Z,13.85
2023-02-04T23:10:58.928Z,12.18
2023-02-04T23:13:01.581Z,12.65
2023-02-04T23:15:04.633Z,12.07
2023-02-04T23:17:07.412Z,11.20
2023-02-04T23:19:10.140Z,12.52
2023-02-04T23:21:12.882Z,10.23
2023-02-04T23:23:17.504Z,13.63
2023-02-04T23:25:20.911Z,10.15
2023-02-04T23:27:25.040Z,10.60
2023-02-04T23:29:29.174Z,11.50
2023-02-04T23:31:31.925Z,13.00
2023-02-04T23:33:34.624Z,12.98
2023-02-04T23:35:37.845Z,16.92
2023-02-04T23:37:40.479Z,11.10
2023-02-04T23:39:43.167Z,13.40
2023-02-04T23:41:46.041Z,15.18
2023-02-04T23:43:50.010Z,11.48
2023-02-04T23:45:52.837Z,14.25
2023-02-04T23:47:55.681Z,13.50
2023-02-04T23:49:58.338Z,15.43
2023-02-04T23:52:01.822Z,16.67
2023-02-04T23:54:05.140Z,12.30
2023-02-04T23:56:08.177Z,14.73
2023-02-04T23:58:11.594Z,15.38
